Time;durP1;ratioP1;P1;durP2;ratioP2;P2;SDS_P1;SDS_P2;PMS_P1;PMS_P2;Temp;Humidity;BMP_temperature;BMP_pressure;BME280_temperature;BME280_humidity;BME280_pressure;Samples;Min_cycle;Max_cycle;Signal;HPM_P1;HPM_P2
2022/12/10 00:01:40;;;;;;;15.20;9.03;;;-1.70;99.90;;;;;;5024501;28;20943;-69
2022/12/10 00:04:06;;;;;;;13.80;7.33;;;-1.70;99.90;;;;;;5032374;28;20423;-68
2022/12/10 00:06:34;;;;;;;16.60;7.47;;;-1.80;99.90;;;;;;5037972;28;20454;-68
2022/12/10 00:09:01;;;;;;;16.10;8.77;;;-1.80;99.90;;;;;;5041360;28;20526;-69
2022/12/10 00:11:27;;;;;;;13.00;7.87;;;-1.70;99.90;;;;;;5032099;28;20455;-69
2022/12/10 00:13:54;;;;;;;10.70;6.20;;;-1.70;99.90;;;;;;5034592;28;20418;-69
2022/12/10 00:16:21;;;;;;;13.50;8.80;;;-1.70;99.90;;;;;;5026535;28;20404;-68
2022/12/10 00:18:49;;;;;;;12.40;7.57;;;-1.70;99.90;;;;;;5023278;28;20419;-68
2022/12/10 00:21:18;;;;;;;10.83;6.97;;;-1.70;99.90;;;;;;5041915;28;20536;-68
2022/12/10 00:23:45;;;;;;;13.50;7.40;;;-1.70;99.90;;;;;;5025096;28;20513;-69
2022/12/10 00:26:13;;;;;;;12.93;8.20;;;-1.70;99.90;;;;;;5031891;28;20406;-68
2022/12/10 00:28:40;;;;;;;13.53;7.50;;;-1.70;99.90;;;;;;5047615;28;20920;-68
2022/12/10 00:31:09;;;;;;;17.20;7.63;;;-1.70;99.90;;;;;;5033680;28;20429;-69
2022/12/10 00:33:35;;;;;;;14.97;7.57;;;-1.70;99.90;;;;;;5043450;28;20777;-68
2022/12/10 00:36:03;;;;;;;13.43;7.77;;;-1.70;99.90;;;;;;5033830;28;20405;-69
2022/12/10 00:38:29;;;;;;;14.90;7.43;;;-1.70;99.90;;;;;;5043944;28;20445;-70
2022/12/10 00:40:54;;;;;;;12.00;7.30;;;-1.70;99.90;;;;;;5031351;28;20448;-68
2022/12/10 00:43:20;;;;;;;10.00;6.60;;;-1.70;99.90;;;;;;5028205;28;20203;-69
2022/12/10 00:45:45;;;;;;;16.93;8.87;;;-1.70;99.90;;;;;;5035926;28;20281;-68
2022/12/10 00:48:11;;;;;;;12.77;7.47;;;-1.70;99.90;;;;;;5024235;28;20331;-68
2022/12/10 00:50:36;;;;;;;10.33;6.13;;;-1.80;99.90;;;;;;5045418;28;20206;-68
2022/12/10 00:53:02;;;;;;;8.90;6.20;;;-1.70;99.90;;;;;;5029092;28;20230;-68
2022/12/10 00:55:27;;;;;;;11.83;6.67;;;-1.70;99.90;;;;;;5037552;28;20206;-68
2022/12/10 00:57:53;;;;;;;14.13;6.70;;;-1.70;99.90;;;;;;5028441;28;20207;-68
2022/12/10 01:00:19;;;;;;;16.10;7.40;;;-1.70;99.90;;;;;;5033388;28;20171;-68
2022/12/10 01:02:44;;;;;;;11.83;7.93;;;-1.70;99.90;;;;;;5046252;28;20174;-68
2022/12/10 01:05:10;;;;;;;11.73;6.57;;;-1.70;99.90;;;;;;5035208;28;20179;-70
2022/12/10 01:07:35;;;;;;;12.20;6.10;;;-1.80;99.90;;;;;;5036819;28;20180;-70
2022/12/10 01:10:02;;;;;;;11.13;6.17;;;-1.80;99.90;;;;;;5045782;28;20167;-69
2022/12/10 01:12:28;;;;;;;11.40;6.53;;;-1.80;99.90;;;;;;5034892;28;20199;-68
2022/12/10 01:14:53;;;;;;;14.77;7.40;;;-1.80;99.90;;;;;;5042162;28;20420;-68
2022/12/10 01:17:20;;;;;;;10.80;7.30;;;-1.80;99.90;;;;;;5028657;28;20234;-68
2022/12/10 01:19:46;;;;;;;18.07;6.20;;;-1.80;99.90;;;;;;5031044;28;20265;-69
2022/12/10 01:22:15;;;;;;;15.83;8.80;;;-1.80;99.90;;;;;;5035814;28;20919;-68
2022/12/10 01:24:40;;;;;;;18.70;8.13;;;-1.80;99.90;;;;;;5023903;28;20548;-68
2022/12/10 01:27:06;;;;;;;17.73;9.37;;;-1.90;99.90;;;;;;5025664;28;20781;-68
2022/12/10 01:29:31;;;;;;;14.40;7.57;;;-1.90;99.90;;;;;;5027067;28;20175;-68
2022/12/10 01:31:58;;;;;;;14.53;7.70;;;-1.90;99.90;;;;;;5032255;28;20230;-68
2022/12/10 01:34:24;;;;;;;10.93;6.27;;;-1.90;99.90;;;;;;5037555;28;20183;-69
2022/12/10 01:36:52;;;;;;;10.60;7.40;;;-2.00;99.90;;;;;;5034702;28;20843;-69
2022/12/10 01:39:19;;;;;;;8.40;7.37;;;-2.00;99.90;;;;;;5035485;28;20510;-69
2022/12/10 01:41:57;;;;;;;10.37;6.53;;;-2.00;99.90;;;;;;5028305;28;20437;-69
2022/12/10 01:44:23;;;;;;;13.60;7.07;;;-2.00;99.90;;;;;;5031822;28;20504;-70
2022/12/10 01:46:54;;;;;;;15.53;9.47;;;-2.10;99.90;;;;;;5036590;28;20493;-70
2022/12/10 01:49:22;;;;;;;9.87;7.23;;;-2.10;99.90;;;;;;5033369;28;20219;-69
2022/12/10 01:51:51;;;;;;;12.07;6.60;;;-2.10;99.90;;;;;;5037278;28;20474;-69
2022/12/10 01:54:32;;;;;;;12.97;8.30;;;-2.10;99.90;;;;;;5031439;28;20406;-68
2022/12/10 01:57:14;;;;;;;14.60;8.10;;;-2.20;99.90;;;;;;5035854;28;20472;-69
2022/12/10 01:59:41;;;;;;;12.50;6.17;;;-2.20;99.90;;;;;;5042984;28;20839;-68
2022/12/10 02:02:24;;;;;;;12.83;6.80;;;-2.20;99.90;;;;;;5041466;28;20453;-69
2022/12/10 02:05:19;;;;;;;12.97;7.50;;;-2.20;99.90;;;;;;5036892;28;20405;-69
2022/12/10 02:08:25;;;;;;;13.87;5.83;;;-2.20;99.90;;;;;;5029121;28;20402;-69
2022/12/10 02:11:06;;;;;;;11.97;6.50;;;-2.30;99.90;;;;;;5029748;28;20488;-69
2022/12/10 02:13:40;;;;;;;12.87;6.90;;;-2.30;99.90;;;;;;5048461;28;20916;-69
2022/12/10 02:16:14;;;;;;;13.97;7.37;;;-2.30;99.90;;;;;;5033851;28;20398;-68
2022/12/10 02:18:52;;;;;;;13.10;6.77;;;-2.30;99.90;;;;;;5035410;28;20480;-69
2022/12/10 02:21:46;;;;;;;12.83;8.10;;;-2.30;99.90;;;;;;5050273;28;20453;-69
2022/12/10 02:24:17;;;;;;;15.50;9.00;;;-2.30;99.90;;;;;;5028981;28;20509;-69
2022/12/10 02:26:54;;;;;;;10.50;7.17;;;-2.30;99.90;;;;;;5032592;28;20454;-69
2022/12/10 02:29:26;;;;;;;11.67;7.37;;;-2.30;99.90;;;;;;5032232;28;20414;-69
2022/12/10 02:32:07;;;;;;;9.13;7.00;;;-2.30;99.90;;;;;;5034506;28;20450;-68
2022/12/10 02:34:41;;;;;;;11.27;7.20;;;-2.30;99.90;;;;;;5035819;28;20410;-69
2022/12/10 02:37:17;;;;;;;13.43;8.70;;;-2.30;99.90;;;;;;5052159;28;20460;-68
2022/12/10 02:39:48;;;;;;;13.40;6.70;;;-2.20;99.90;;;;;;5041023;28;20402;-70
2022/12/10 02:42:16;;;;;;;13.17;6.93;;;-2.20;99.90;;;;;;5029144;28;20481;-69
2022/12/10 02:44:43;;;;;;;12.73;6.27;;;-2.20;99.90;;;;;;5033868;28;20434;-68
2022/12/10 02:47:11;;;;;;;8.67;6.30;;;-2.20;99.90;;;;;;5007673;28;20431;-68
2022/12/10 02:49:39;;;;;;;15.47;7.10;;;-2.20;99.90;;;;;;5036808;28;20406;-69
2022/12/10 02:52:24;;;;;;;12.93;6.30;;;-2.20;99.90;;;;;;5050664;28;20838;-69
2022/12/10 02:54:50;;;;;;;17.57;12.70;;;-2.20;99.90;;;;;;5047710;28;20458;-69
2022/12/10 02:57:47;;;;;;;11.87;6.80;;;-2.20;99.90;;;;;;5025915;28;20450;-69
2022/12/10 03:00:21;;;;;;;10.23;6.77;;;-2.20;99.90;;;;;;5023895;28;20172;-69
2022/12/10 03:03:31;;;;;;;9.90;6.53;;;-2.30;99.90;;;;;;5036768;28;20404;-69
2022/12/10 03:06:18;;;;;;;10.50;7.43;;;-2.30;99.90;;;;;;4979136;28;20488;-69
2022/12/10 03:08:46;;;;;;;11.33;6.20;;;-2.30;99.90;;;;;;4971534;28;20409;-68
2022/12/10 03:11:15;;;;;;;13.43;9.33;;;-2.20;99.90;;;;;;5009862;28;20442;-68
2022/12/10 03:13:55;;;;;;;14.87;6.73;;;-2.20;99.90;;;;;;5045494;28;20418;-69
2022/12/10 03:16:23;;;;;;;14.40;8.00;;;-2.30;99.90;;;;;;5025516;28;20493;-69
2022/12/10 03:18:54;;;;;;;13.97;7.83;;;-2.20;99.90;;;;;;5037018;28;20401;-70
2022/12/10 03:21:21;;;;;;;12.37;6.70;;;-2.20;99.90;;;;;;5037744;28;20458;-68
2022/12/10 03:23:49;;;;;;;15.63;7.10;;;-2.20;99.90;;;;;;5027058;28;20418;-69
2022/12/10 03:26:17;;;;;;;15.10;7.80;;;-2.20;99.90;;;;;;5029944;28;20768;-69
2022/12/10 03:28:55;;;;;;;9.40;6.37;;;-2.10;99.90;;;;;;5034044;28;20908;-69
2022/12/10 03:31:21;;;;;;;17.70;9.53;;;-2.10;99.90;;;;;;5023826;28;20434;-69
2022/12/10 03:33:48;;;;;;;16.53;7.57;;;-2.10;99.90;;;;;;5027036;28;20410;-69
2022/12/10 03:36:15;;;;;;;14.50;8.03;;;-2.10;99.90;;;;;;5028812;28;20490;-69
2022/12/10 03:38:43;;;;;;;13.80;8.73;;;-2.10;99.90;;;;;;5037239;28;20549;-69
2022/12/10 03:41:08;;;;;;;19.00;8.73;;;-2.10;99.90;;;;;;5031818;28;20449;-69
2022/12/10 03:43:34;;;;;;;12.07;8.47;;;-2.10;99.90;;;;;;5038516;28;20950;-69
2022/12/10 03:45:59;;;;;;;12.20;7.50;;;-2.10;99.90;;;;;;5043560;28;20209;-70
2022/12/10 03:48:25;;;;;;;16.20;8.00;;;-2.10;99.90;;;;;;5029801;28;20172;-70
2022/12/10 03:50:51;;;;;;;16.00;8.40;;;-2.10;99.90;;;;;;5046270;28;20266;-69
2022/12/10 03:53:16;;;;;;;13.00;7.90;;;-2.10;99.90;;;;;;5028882;28;20175;-70
2022/12/10 03:55:42;;;;;;;12.73;7.37;;;-2.10;99.90;;;;;;5039233;28;20182;-70
2022/12/10 03:58:08;;;;;;;13.97;6.20;;;-2.10;99.90;;;;;;5028716;28;20192;-70
2022/12/10 04:00:33;;;;;;;12.07;7.97;;;-2.10;99.90;;;;;;5038590;28;20227;-69
2022/12/10 04:02:59;;;;;;;17.03;9.10;;;-2.10;99.90;;;;;;5028757;28;20172;-68
2022/12/10 04:05:24;;;;;;;20.17;10.50;;;-2.10;99.90;;;;;;5027141;28;20314;-68
2022/12/10 04:07:50;;;;;;;15.40;9.30;;;-2.00;99.90;;;;;;5024411;28;20522;-68
2022/12/10 04:10:16;;;;;;;10.90;7.20;;;-2.00;99.90;;;;;;5021534;28;20172;-68
2022/12/10 04:12:41;;;;;;;17.60;10.47;;;-2.00;99.90;;;;;;5031499;28;20641;-68
2022/12/10 04:17:52;;;;;;;12.33;7.90;;;-1.90;99.90;;;;;;5033997;28;20190;-68
2022/12/10 04:28:30;;;;;;;12.43;8.30;;;-1.80;99.90;;;;;;5048440;22;20433;-70
2022/12/10 04:30:56;;;;;;;19.40;10.07;;;-1.70;99.90;;;;;;5031844;28;20434;-69
2022/12/10 04:33:22;;;;;;;10.17;8.37;;;-1.70;99.90;;;;;;5040995;28;20637;-70
2022/12/10 04:35:47;;;;;;;21.40;7.80;;;-1.70;99.90;;;;;;5038940;28;20211;-69
2022/12/10 04:38:13;;;;;;;13.27;9.50;;;-1.70;99.90;;;;;;5041835;28;20607;-69
2022/12/10 04:40:38;;;;;;;11.80;8.63;;;-1.70;99.90;;;;;;5046044;28;20728;-69
2022/12/10 04:43:04;;;;;;;17.80;9.73;;;-1.60;99.90;;;;;;5041961;28;20191;-69
2022/12/10 04:45:30;;;;;;;13.07;8.10;;;-1.60;99.90;;;;;;5033200;28;20175;-68
2022/12/10 04:47:55;;;;;;;10.60;7.63;;;-1.60;99.90;;;;;;5039919;28;20186;-68
2022/12/10 04:50:21;;;;;;;14.37;9.00;;;-1.50;99.90;;;;;;5036679;28;20203;-69
2022/12/10 04:52:46;;;;;;;17.17;8.73;;;-1.50;99.90;;;;;;5047895;28;20257;-68
2022/12/10 04:55:12;;;;;;;19.53;8.00;;;-1.50;99.90;;;;;;5035270;28;20183;-69
2022/12/10 04:57:37;;;;;;;13.63;8.10;;;-1.50;99.90;;;;;;5039667;28;20199;-69
2022/12/10 05:00:03;;;;;;;14.73;9.13;;;-1.50;99.90;;;;;;5045027;28;20668;-68
2022/12/10 05:02:29;;;;;;;15.60;8.83;;;-1.50;99.90;;;;;;5046898;28;20174;-69
2022/12/10 05:04:55;;;;;;;13.30;8.77;;;-1.40;99.90;;;;;;5018793;28;20768;-69
2022/12/10 05:07:20;;;;;;;14.67;7.77;;;-1.40;99.90;;;;;;5040213;28;20171;-68
2022/12/10 05:09:46;;;;;;;14.57;8.23;;;-1.40;99.90;;;;;;5039574;28;20191;-69
2022/12/10 05:12:11;;;;;;;14.40;7.80;;;-1.40;99.90;;;;;;5041226;28;20171;-70
2022/12/10 05:14:37;;;;;;;14.60;8.00;;;-1.30;99.90;;;;;;5036536;28;20859;-68
2022/12/10 05:17:03;;;;;;;15.93;8.67;;;-1.30;99.90;;;;;;5044761;28;20644;-69
2022/12/10 05:19:28;;;;;;;16.27;8.57;;;-1.30;99.90;;;;;;5049158;28;20195;-70
2022/12/10 05:24:38;;;;;;;14.90;9.40;;;-1.20;99.90;;;;;;5036756;28;20203;-70
2022/12/10 05:27:04;;;;;;;18.57;9.73;;;-1.20;99.90;;;;;;5040612;28;20418;-70
2022/12/10 05:29:29;;;;;;;16.90;9.97;;;-1.20;99.90;;;;;;5038162;28;20259;-70
2022/12/10 05:31:55;;;;;;;16.40;8.30;;;-1.30;99.90;;;;;;5042222;28;20422;-69
2022/12/10 05:34:21;;;;;;;15.00;8.50;;;-1.20;99.90;;;;;;5040786;28;20228;-68
2022/12/10 05:36:47;;;;;;;18.50;10.27;;;-1.20;99.90;;;;;;5038674;28;20454;-68
2022/12/10 05:39:12;;;;;;;11.93;9.23;;;-1.20;99.90;;;;;;5043685;28;20202;-69
2022/12/10 05:41:39;;;;;;;16.63;9.10;;;-1.20;99.90;;;;;;5037169;28;20185;-70
2022/12/10 05:44:05;;;;;;;12.10;8.03;;;-1.20;99.90;;;;;;5039259;28;20167;-69
2022/12/10 05:46:33;;;;;;;11.50;8.10;;;-1.10;99.90;;;;;;5038905;28;20426;-69
2022/12/10 05:49:01;;;;;;;13.00;9.13;;;-1.10;99.90;;;;;;5042978;28;20552;-69
2022/12/10 05:51:29;;;;;;;11.00;7.37;;;-1.10;99.90;;;;;;5051129;28;20615;-69
2022/12/10 05:53:57;;;;;;;18.93;9.63;;;-1.10;99.90;;;;;;5049839;28;20891;-69
2022/12/10 05:56:24;;;;;;;13.20;7.30;;;-1.10;99.90;;;;;;5038191;28;20425;-70
2022/12/10 05:58:51;;;;;;;10.80;6.73;;;-1.00;99.90;;;;;;5039561;28;20890;-68
2022/12/10 06:01:20;;;;;;;13.80;8.07;;;-1.00;99.90;;;;;;5036669;28;20935;-70
2022/12/10 06:03:46;;;;;;;13.77;7.90;;;-1.00;99.90;;;;;;5041984;28;20932;-69
2022/12/10 06:06:13;;;;;;;14.63;8.13;;;-1.00;99.90;;;;;;5045036;28;20424;-68
2022/12/10 06:08:39;;;;;;;11.03;7.80;;;-1.00;99.90;;;;;;5044298;28;20950;-69
2022/12/10 06:11:10;;;;;;;10.60;8.33;;;-1.00;99.90;;;;;;5043058;28;20430;-69
2022/12/10 06:13:37;;;;;;;11.90;7.27;;;-0.90;99.90;;;;;;5046204;28;20429;-68
2022/12/10 06:16:07;;;;;;;11.60;8.00;;;-0.90;99.90;;;;;;5027372;28;20425;-68
2022/12/10 06:18:33;;;;;;;12.67;8.03;;;-1.00;99.90;;;;;;5037122;28;20458;-68
2022/12/10 06:21:02;;;;;;;11.73;7.40;;;-1.00;99.90;;;;;;5037175;28;20429;-68
2022/12/10 06:23:27;;;;;;;13.03;8.00;;;-0.90;99.90;;;;;;5045061;28;20420;-68
2022/12/10 06:25:53;;;;;;;12.10;7.43;;;-0.90;99.90;;;;;;5042635;28;21044;-68
2022/12/10 06:28:18;;;;;;;10.70;7.70;;;-0.90;99.90;;;;;;5040668;28;20183;-68
2022/12/10 06:30:44;;;;;;;9.90;6.80;;;-0.90;99.90;;;;;;5046882;28;20190;-69
2022/12/10 06:33:09;;;;;;;15.33;8.93;;;-1.00;99.90;;;;;;5049268;28;20656;-68
2022/12/10 06:35:37;;;;;;;11.00;5.60;;;-1.00;99.90;;;;;;5048863;28;20257;-70
2022/12/10 06:38:03;;;;;;;10.90;6.40;;;-1.00;99.90;;;;;;5052471;28;20198;-68
2022/12/10 06:40:28;;;;;;;13.00;8.30;;;-1.00;99.90;;;;;;5045064;28;20425;-69
2022/12/10 06:42:54;;;;;;;11.10;6.93;;;-1.00;99.90;;;;;;5045185;28;20214;-70
2022/12/10 06:45:19;;;;;;;10.97;7.47;;;-1.10;99.90;;;;;;5052075;28;20166;-69
2022/12/10 06:47:45;;;;;;;8.80;6.90;;;-1.10;99.90;;;;;;5035364;28;20266;-69
2022/12/10 06:50:10;;;;;;;10.27;8.73;;;-1.10;99.90;;;;;;5054732;28;20302;-69
2022/12/10 06:52:36;;;;;;;11.53;8.20;;;-1.10;99.90;;;;;;5053297;28;20258;-69
2022/12/10 06:55:02;;;;;;;13.63;7.10;;;-1.10;99.90;;;;;;5053169;28;20179;-70
2022/12/10 06:57:28;;;;;;;9.43;5.83;;;-1.10;99.90;;;;;;5053490;28;20230;-69
2022/12/10 06:59:54;;;;;;;10.27;6.87;;;-1.20;99.90;;;;;;5053352;28;20206;-69
2022/12/10 07:02:19;;;;;;;10.07;7.13;;;-1.20;99.90;;;;;;5053660;28;20432;-69
2022/12/10 07:04:45;;;;;;;11.17;8.03;;;-1.20;99.90;;;;;;5053664;28;20179;-69
2022/12/10 07:07:11;;;;;;;8.07;6.90;;;-1.20;99.90;;;;;;5051818;28;20190;-69
2022/12/10 07:09:37;;;;;;;12.40;6.83;;;-1.10;99.90;;;;;;5052757;28;20509;-69
2022/12/10 07:12:03;;;;;;;8.50;5.97;;;-1.10;99.90;;;;;;5053078;28;20205;-70
2022/12/10 07:14:29;;;;;;;12.37;8.13;;;-1.10;99.90;;;;;;5053262;28;20749;-70
2022/12/10 07:16:55;;;;;;;7.83;6.33;;;-1.20;99.90;;;;;;5053123;28;20456;-69
2022/12/10 07:19:20;;;;;;;13.37;5.63;;;-1.20;99.90;;;;;;5052911;28;20209;-69
2022/12/10 07:21:46;;;;;;;12.00;8.40;;;-1.30;99.90;;;;;;5053227;28;20629;-70
2022/12/10 07:24:14;;;;;;;8.33;5.30;;;-1.30;99.90;;;;;;5053709;28;20256;-70
2022/12/10 07:26:42;;;;;;;9.80;5.53;;;-1.20;99.90;;;;;;5052977;28;20554;-69
2022/12/10 07:29:13;;;;;;;11.17;7.50;;;-1.30;99.90;;;;;;5034760;28;20521;-68
2022/12/10 07:31:38;;;;;;;8.87;7.17;;;-1.20;99.90;;;;;;5052350;28;20422;-69
2022/12/10 07:34:04;;;;;;;9.20;5.90;;;-1.20;99.90;;;;;;5051355;28;20409;-70
2022/12/10 07:36:30;;;;;;;8.80;7.53;;;-1.20;99.90;;;;;;5040957;28;20179;-70
2022/12/10 07:38:56;;;;;;;10.43;7.87;;;-1.30;99.90;;;;;;5034691;28;20195;-70
2022/12/10 07:41:22;;;;;;;10.00;6.27;;;-1.30;99.90;;;;;;5045223;28;20206;-70
2022/12/10 07:43:48;;;;;;;9.50;6.97;;;-1.20;99.90;;;;;;5052591;28;20414;-69
2022/12/10 07:46:22;;;;;;;7.77;5.97;;;-1.20;99.90;;;;;;5049722;28;20410;-70
2022/12/10 07:48:48;;;;;;;8.77;7.23;;;-1.20;99.90;;;;;;5038916;28;20461;-69
2022/12/10 07:51:14;;;;;;;10.47;6.73;;;-1.20;99.90;;;;;;5032676;28;20792;-69
2022/12/10 07:53:40;;;;;;;9.50;6.27;;;-1.20;99.90;;;;;;5052498;28;20464;-68
2022/12/10 07:56:06;;;;;;;7.97;6.23;;;-1.10;99.90;;;;;;5051452;28;20449;-68
2022/12/10 07:58:32;;;;;;;8.27;7.43;;;-1.20;99.90;;;;;;5052160;28;20225;-69
2022/12/10 08:00:58;;;;;;;10.20;6.37;;;-1.20;99.90;;;;;;5052065;28;20414;-69
2022/12/10 08:03:24;;;;;;;10.40;7.10;;;-1.20;99.90;;;;;;5052205;28;20425;-68
2022/12/10 08:06:00;;;;;;;9.10;6.10;;;-1.20;99.90;;;;;;5051901;28;20179;-70
2022/12/10 08:08:25;;;;;;;12.50;7.73;;;-1.20;99.90;;;;;;5045388;28;20685;-69
2022/12/10 08:10:51;;;;;;;10.37;7.30;;;-1.20;99.90;;;;;;5052232;28;20512;-69
2022/12/10 08:13:17;;;;;;;10.07;6.77;;;-1.20;99.90;;;;;;5052389;28;20228;-69
2022/12/10 08:15:42;;;;;;;8.80;6.07;;;-1.20;99.90;;;;;;5052192;28;20557;-69
2022/12/10 08:18:08;;;;;;;11.50;6.67;;;-1.10;99.90;;;;;;5051744;28;20203;-69
2022/12/10 08:20:34;;;;;;;12.30;7.27;;;-1.10;99.90;;;;;;5051784;28;20202;-69
2022/12/10 08:23:00;;;;;;;9.53;6.20;;;-1.00;99.90;;;;;;5051950;28;20197;-70
2022/12/10 08:25:26;;;;;;;10.50;6.20;;;-1.00;99.90;;;;;;5051780;28;20421;-69
2022/12/10 08:27:51;;;;;;;8.17;6.53;;;-1.00;99.90;;;;;;5051912;28;20409;-69
2022/12/10 08:30:17;;;;;;;7.50;6.77;;;-1.00;99.90;;;;;;5051357;28;20302;-69
2022/12/10 08:32:43;;;;;;;14.70;6.67;;;-1.00;99.90;;;;;;5051835;28;20182;-69
2022/12/10 08:35:08;;;;;;;10.90;6.83;;;-0.90;99.90;;;;;;5051703;28;20209;-68
2022/12/10 08:37:34;;;;;;;9.23;6.70;;;-0.90;99.90;;;;;;5051779;28;20210;-69
2022/12/10 08:39:59;;;;;;;9.43;7.03;;;-0.90;99.90;;;;;;5051444;28;20198;-69
2022/12/10 08:42:25;;;;;;;12.03;9.00;;;-0.90;99.90;;;;;;5051651;28;20174;-69
2022/12/10 08:44:50;;;;;;;12.23;8.70;;;-0.90;99.90;;;;;;5033862;28;20233;-69
2022/12/10 08:47:16;;;;;;;10.00;6.70;;;-0.90;99.90;;;;;;5051212;28;20313;-69
2022/12/10 08:49:42;;;;;;;7.50;6.67;;;-0.90;99.90;;;;;;5051717;28;20199;-69
2022/12/10 08:52:07;;;;;;;10.03;7.10;;;-0.80;99.90;;;;;;5051348;28;20644;-69
2022/12/10 08:54:33;;;;;;;12.23;8.20;;;-0.80;99.90;;;;;;5051817;28;20179;-68
2022/12/10 08:56:58;;;;;;;12.10;7.83;;;-0.70;99.90;;;;;;5050853;28;20679;-68
2022/12/10 08:59:24;;;;;;;11.17;7.27;;;-0.70;99.90;;;;;;5051184;28;20240;-69
2022/12/10 09:01:52;;;;;;;11.97;8.27;;;-0.60;99.90;;;;;;5050873;28;20188;-69
2022/12/10 09:04:18;;;;;;;8.97;6.67;;;-0.60;99.90;;;;;;5043459;28;20537;-69
2022/12/10 09:06:43;;;;;;;9.77;7.30;;;-0.60;99.90;;;;;;5049927;28;20429;-69
2022/12/10 09:09:09;;;;;;;12.17;8.50;;;-0.60;99.90;;;;;;5051191;28;20202;-69
2022/12/10 09:11:34;;;;;;;11.23;8.07;;;-0.50;99.90;;;;;;5051373;28;20210;-69
2022/12/10 09:14:00;;;;;;;10.20;6.40;;;-0.40;99.90;;;;;;5051282;28;20441;-69
2022/12/10 09:16:31;;;;;;;9.23;8.07;;;-0.40;99.90;;;;;;5048778;28;20668;-69
2022/12/10 09:18:57;;;;;;;11.77;8.27;;;-0.40;99.90;;;;;;5048422;28;20461;-70
2022/12/10 09:21:23;;;;;;;15.60;8.97;;;-0.50;99.90;;;;;;5045169;28;20422;-69
2022/12/10 09:23:51;;;;;;;11.40;7.83;;;-0.50;99.90;;;;;;5049995;28;20455;-69
2022/12/10 09:26:16;;;;;;;11.60;7.53;;;-0.50;99.90;;;;;;5041290;28;20183;-69
2022/12/10 09:28:43;;;;;;;9.50;6.97;;;-0.40;99.90;;;;;;5050014;28;20966;-69
2022/12/10 09:31:09;;;;;;;14.40;8.40;;;-0.40;99.90;;;;;;5051106;28;20584;-69
2022/12/10 09:33:36;;;;;;;14.60;8.23;;;-0.40;99.90;;;;;;5049752;28;20800;-69
2022/12/10 09:36:09;;;;;;;9.93;7.23;;;-0.40;99.90;;;;;;5050453;28;20424;-69
2022/12/10 09:38:36;;;;;;;11.60;8.40;;;-0.40;99.90;;;;;;5043487;28;20987;-69
2022/12/10 09:41:05;;;;;;;12.20;8.77;;;-0.40;99.90;;;;;;5048470;28;20409;-69
2022/12/10 09:43:46;;;;;;;10.57;7.47;;;-0.30;99.90;;;;;;5048409;28;20447;-69
2022/12/10 09:46:15;;;;;;;10.77;7.07;;;-0.30;99.90;;;;;;5049060;28;21208;-70
2022/12/10 09:49:05;;;;;;;8.93;7.50;;;-0.30;99.90;;;;;;5042365;28;20541;-70
2022/12/10 09:51:34;;;;;;;9.67;7.03;;;-0.30;99.90;;;;;;5044937;28;20450;-69
2022/12/10 09:54:02;;;;;;;13.70;9.20;;;-0.20;99.90;;;;;;5048291;28;20414;-69
2022/12/10 09:56:35;;;;;;;11.97;8.53;;;-0.20;99.90;;;;;;5039471;28;20425;-69
2022/12/10 09:59:23;;;;;;;9.47;7.70;;;-0.30;99.90;;;;;;5047897;28;20437;-69
2022/12/10 10:02:00;;;;;;;12.93;9.00;;;-0.20;99.90;;;;;;5032242;28;20409;-69
2022/12/10 10:04:26;;;;;;;11.47;7.03;;;-0.20;99.90;;;;;;5050029;28;20492;-69
2022/12/10 10:06:51;;;;;;;12.90;8.83;;;-0.20;99.90;;;;;;5058765;28;20449;-70
2022/12/10 10:09:18;;;;;;;10.57;8.13;;;-0.20;99.90;;;;;;5051525;28;20703;-69
2022/12/10 10:11:44;;;;;;;10.30;9.20;;;-0.20;99.90;;;;;;5047729;28;20178;-69
2022/12/10 10:14:13;;;;;;;12.30;7.00;;;-0.20;99.90;;;;;;5054248;28;20413;-69
2022/12/10 10:17:08;;;;;;;11.23;7.63;;;-0.20;99.90;;;;;;5054233;28;20441;-69
2022/12/10 10:19:35;;;;;;;12.90;8.00;;;-0.10;99.90;;;;;;5052327;28;20436;-69
2022/12/10 10:22:01;;;;;;;12.60;8.83;;;-0.20;99.90;;;;;;5049218;28;20410;-69
2022/12/10 10:24:39;;;;;;;13.40;9.17;;;-0.20;99.90;;;;;;5045839;28;20524;-68
2022/12/10 10:27:15;;;;;;;11.33;8.17;;;-0.20;99.90;;;;;;5053977;28;20409;-70
2022/12/10 10:29:45;;;;;;;14.27;8.60;;;-0.10;99.90;;;;;;5051271;28;20456;-69
2022/12/10 10:32:18;;;;;;;10.87;7.60;;;-0.10;99.90;;;;;;5053954;28;20421;-71
2022/12/10 10:34:45;;;;;;;11.73;9.50;;;0.00;99.90;;;;;;5052470;28;20470;-69
2022/12/10 10:37:46;;;;;;;12.73;8.53;;;-0.10;99.90;;;;;;5052402;28;20457;-69
2022/12/10 10:40:24;;;;;;;9.07;7.50;;;-0.10;99.90;;;;;;5018367;28;20446;-69
2022/12/10 10:42:54;;;;;;;15.53;8.30;;;-0.10;99.90;;;;;;5048514;28;20416;-69
2022/12/10 10:45:34;;;;;;;8.87;7.87;;;-0.20;99.90;;;;;;5046116;28;20455;-69
2022/12/10 10:48:21;;;;;;;11.80;8.10;;;-0.10;99.90;;;;;;5053598;28;20411;-69
2022/12/10 10:51:04;;;;;;;10.40;8.60;;;-0.10;99.90;;;;;;5049521;28;20498;-68
2022/12/10 10:53:39;;;;;;;8.50;7.60;;;-0.20;99.90;;;;;;5051456;28;20431;-69
2022/12/10 10:56:17;;;;;;;10.87;7.67;;;-0.20;99.90;;;;;;5040215;28;21054;-69
2022/12/10 10:59:06;;;;;;;11.53;8.83;;;-0.10;99.90;;;;;;5044703;28;20873;-69
2022/12/10 11:01:54;;;;;;;12.20;8.40;;;-0.10;99.90;;;;;;5047224;28;20445;-70
2022/12/10 11:04:51;;;;;;;10.93;8.50;;;-0.20;99.90;;;;;;5051959;28;20462;-69
2022/12/10 11:07:31;;;;;;;10.13;7.57;;;-0.20;99.90;;;;;;5015457;28;20810;-68
2022/12/10 11:09:58;;;;;;;13.10;8.20;;;-0.10;99.90;;;;;;5052910;28;20433;-69
2022/12/10 11:12:33;;;;;;;12.00;7.97;;;-0.10;99.90;;;;;;5053107;28;20438;-68
2022/12/10 11:14:59;;;;;;;9.10;6.83;;;-0.10;99.90;;;;;;5051504;28;20443;-69
2022/12/10 11:17:26;;;;;;;9.70;7.93;;;-0.20;99.90;;;;;;5039439;28;20465;-69
2022/12/10 11:20:13;;;;;;;12.67;7.97;;;-0.20;99.90;;;;;;5051867;28;20700;-69
2022/12/10 11:22:49;;;;;;;12.50;8.20;;;-0.10;99.90;;;;;;5049781;28;20405;-68
2022/12/10 11:25:15;;;;;;;10.13;8.80;;;0.00;99.90;;;;;;5052723;28;20421;-69
2022/12/10 11:28:06;;;;;;;14.80;9.70;;;-0.10;99.90;;;;;;5050225;28;20866;-70
2022/12/10 11:30:39;;;;;;;11.60;7.90;;;0.00;99.90;;;;;;5046518;28;20203;-69
2022/12/10 11:33:15;;;;;;;12.40;8.77;;;0.00;99.90;;;;;;5051284;28;20445;-69
2022/12/10 11:36:06;;;;;;;14.00;8.83;;;0.10;99.90;;;;;;5034891;28;20416;-69
2022/12/10 11:38:50;;;;;;;9.00;7.70;;;0.20;99.90;;;;;;5049626;28;20464;-68
2022/12/10 11:41:43;;;;;;;8.90;8.00;;;0.20;99.90;;;;;;5052375;28;20986;-68
2022/12/10 11:44:37;;;;;;;11.07;7.83;;;0.20;99.90;;;;;;5050787;28;20543;-69
2022/12/10 11:47:03;;;;;;;11.30;6.80;;;0.10;99.90;;;;;;5052336;28;20402;-69
2022/12/10 11:49:39;;;;;;;9.47;7.63;;;0.10;99.90;;;;;;5048083;28;20980;-69
2022/12/10 11:52:25;;;;;;;10.60;6.60;;;0.20;99.90;;;;;;5052134;28;20177;-69
2022/12/10 11:55:12;;;;;;;11.93;9.10;;;0.20;99.90;;;;;;5055209;28;20412;-69
2022/12/10 11:58:04;;;;;;;14.07;7.90;;;0.10;99.90;;;;;;5051136;28;20808;-69
2022/12/10 12:00:50;;;;;;;9.87;8.07;;;0.00;99.90;;;;;;5047736;28;20438;-70
2022/12/10 12:03:24;;;;;;;8.83;7.20;;;0.00;99.90;;;;;;5047758;28;20912;-68
2022/12/10 12:05:56;;;;;;;10.80;7.77;;;-0.10;99.90;;;;;;5070509;22;20832;-70
2022/12/10 12:08:36;;;;;;;11.80;8.80;;;-0.10;99.90;;;;;;5049790;28;20425;-68
2022/12/10 12:11:05;;;;;;;9.20;7.87;;;-0.10;99.90;;;;;;5047150;28;20515;-67
2022/12/10 12:14:05;;;;;;;12.50;7.70;;;-0.10;99.90;;;;;;5048938;28;20857;-68
2022/12/10 12:16:40;;;;;;;9.33;8.37;;;-0.20;99.90;;;;;;5013314;28;20833;-68
2022/12/10 12:19:38;;;;;;;9.00;7.17;;;-0.20;99.90;;;;;;5025037;28;20484;-69
2022/12/10 12:22:21;;;;;;;9.97;7.23;;;-0.20;99.90;;;;;;5028836;28;20426;-68
2022/12/10 12:24:48;;;;;;;14.97;9.73;;;-0.10;99.90;;;;;;5024824;28;20430;-67
2022/12/10 12:27:14;;;;;;;13.87;9.50;;;-0.10;99.90;;;;;;5003433;28;20957;-68
2022/12/10 12:30:04;;;;;;;9.87;7.90;;;-0.10;99.90;;;;;;5023243;28;20501;-67
2022/12/10 12:32:39;;;;;;;12.60;8.10;;;-0.10;99.90;;;;;;5031149;28;20590;-70
2022/12/10 12:35:17;;;;;;;15.03;9.60;;;0.00;99.90;;;;;;5027365;28;20492;-70
2022/12/10 12:37:54;;;;;;;12.33;8.63;;;-0.20;99.90;;;;;;5022616;28;20466;-68
2022/12/10 12:40:27;;;;;;;15.93;9.90;;;-0.20;99.90;;;;;;5026502;28;20429;-69
2022/12/10 12:43:14;;;;;;;11.00;9.20;;;-0.20;99.90;;;;;;5024230;28;20476;-69
2022/12/10 12:45:44;;;;;;;11.97;8.30;;;-0.20;99.90;;;;;;5026503;28;20425;-68
2022/12/10 12:48:28;;;;;;;16.53;9.30;;;-0.20;99.90;;;;;;5001102;28;20422;-68
2022/12/10 12:51:09;;;;;;;10.30;8.63;;;-0.20;99.90;;;;;;5034502;28;20795;-70
2022/12/10 12:53:35;;;;;;;12.77;8.77;;;-0.20;99.90;;;;;;5031483;28;20410;-69
2022/12/10 12:56:15;;;;;;;13.73;7.70;;;-0.30;99.90;;;;;;5038127;28;20433;-69
2022/12/10 12:58:41;;;;;;;12.27;7.53;;;-0.20;99.90;;;;;;5030323;28;20470;-69
2022/12/10 13:01:25;;;;;;;11.77;8.63;;;-0.20;99.90;;;;;;5022103;28;20410;-69
2022/12/10 13:03:51;;;;;;;14.00;9.70;;;-0.20;99.90;;;;;;5023470;28;20241;-69
2022/12/10 13:06:23;;;;;;;10.60;8.90;;;-0.20;99.90;;;;;;5030995;28;20544;-69
2022/12/10 13:09:17;;;;;;;15.60;11.30;;;-0.20;99.90;;;;;;5026726;28;20930;-69